createdAt,value
2017-08-13T00:00:19.733Z,93987.25
2017-08-13T00:02:47.247Z,93994.52
2017-08-13T00:05:14.730Z,94015.70
2017-08-13T00:07:42.227Z,94018.55
2017-08-13T00:10:09.771Z,93991.03
2017-08-13T00:12:37.250Z,93980.70
2017-08-13T00:15:04.768Z,94000.20
2017-08-13T00:17:32.301Z,94016.25
2017-08-13T00:19:59.836Z,94028.27
2017-08-13T00:22:27.308Z,94009.17
2017-08-13T00:24:54.821Z,93970.95
2017-08-13T00:27:22.288Z,94001.72
2017-08-13T00:29:49.772Z,94044.70
2017-08-13T00:32:17.288Z,94041.45
2017-08-13T00:34:44.768Z,94034.39
2017-08-13T00:37:12.260Z,94030.19
2017-08-13T00:39:39.773Z,94039.56
2017-08-13T00:42:07.336Z,94033.44
2017-08-13T00:44:34.840Z,94014.92
2017-08-13T00:47:02.376Z,93992.94
2017-08-13T00:49:29.886Z,93983.75
2017-08-13T00:51:57.381Z,93991.99
2017-08-13T00:54:24.947Z,94008.05
2017-08-13T00:56:52.445Z,94026.42
2017-08-13T00:59:19.922Z,94030.08
2017-08-13T01:01:47.480Z,94028.75
2017-08-13T01:04:14.980Z,94021.29
2017-08-13T01:06:42.517Z,94009.63
2017-08-13T01:09:10.057Z,94000.65
2017-08-13T01:11:37.533Z,94004.87
2017-08-13T01:14:05.017Z,93995.67
2017-08-13T01:16:32.525Z,93993.79
2017-08-13T01:19:00.076Z,93995.50
2017-08-13T01:21:27.578Z,93992.63
2017-08-13T01:23:55.106Z,93974.09
2017-08-13T01:26:22.579Z,93984.59
2017-08-13T01:28:50.121Z,93980.20
2017-08-13T01:31:17.656Z,93967.00
2017-08-13T01:33:45.129Z,93970.84
2017-08-13T01:36:12.629Z,93968.72
2017-08-13T01:38:40.186Z,93958.41
2017-08-13T01:41:07.657Z,93963.96
2017-08-13T01:43:35.140Z,93971.41
2017-08-13T01:46:02.657Z,93967.77
2017-08-13T01:48:30.162Z,93962.78
2017-08-13T01:50:57.642Z,93963.74
2017-08-13T01:53:25.315Z,93949.22
2017-08-13T01:55:52.867Z,93943.66
2017-08-13T01:58:20.349Z,93964.31
2017-08-13T02:00:47.897Z,93979.41
2017-08-13T02:03:15.384Z,93980.95
2017-08-13T02:05:42.889Z,93971.95
2017-08-13T02:08:10.428Z,93961.65
2017-08-13T02:10:37.919Z,93975.20
2017-08-13T02:13:05.448Z,93972.69
2017-08-13T02:15:32.969Z,93970.02
2017-08-13T02:18:00.466Z,93969.42
2017-08-13T02:20:27.951Z,93973.43
2017-08-13T02:22:55.492Z,93974.59
2017-08-13T02:25:22.987Z,93971.53
2017-08-13T02:27:50.554Z,93964.66
2017-08-13T02:30:18.106Z,93965.59
2017-08-13T02:32:45.569Z,93958.52
2017-08-13T02:35:13.053Z,93960.23
2017-08-13T02:37:40.557Z,93944.17
2017-08-13T02:40:08.148Z,93946.09
2017-08-13T02:42:35.704Z,93956.03
2017-08-13T02:45:03.230Z,93960.05
2017-08-13T02:47:30.792Z,93962.52
2017-08-13T02:49:58.296Z,93962.70
2017-08-13T02:52:25.823Z,93965.75
2017-08-13T02:54:53.294Z,93969.38
2017-08-13T02:57:20.761Z,93979.10
2017-08-13T02:59:48.297Z,93975.10
